Angelo Coast Range Reserve, California Weather observations

Data are for 10 minute period ending at time listed.
 Day   Time   Solar   Ave.   Ave.  Ave.  Vector  Max.   Baro.   Total    
  of    of     Rad.   Air    Rel.  Wind   Wind   Wind  Press.  Precip.   
Year   Day            Temp.  Hum.  Speed  Dir.   Gust                    
2016   (PST)  Kw/m2    F      %     mph   deg.    mph    mb.     in.     
-------------------------------------------------------------------------
 145   10:40   0.20   63.0    66    3.9   170     7.0   963.8    0.00 
 145   10:50   0.28   62.5    68    2.8   158     5.3   963.9    0.00 
 145   11:00   0.25   63.1    68    1.6   136     4.2   964.0    0.00 
 145   11:10   0.24   63.1    67    4.2   139     7.3   964.0    0.00 
 145   11:20   0.78   63.6    65    2.5   123     6.1   964.0    0.00 
 145   11:30   0.89   65.8    63    5.1   136    13.6   964.0    0.00 
 145   11:40   0.57   63.7    66    4.8   119    13.2   964.1    0.00 
 145   11:50   0.41   65.6    62    3.1   159    10.0   964.1    0.00 
 145   12:00   0.27   63.5    62    6.0   158    10.7   964.1    0.00 
 145   12:10   0.40   63.1    63    5.3   159    10.8   964.2    0.00 
 145   12:20   0.94   64.0    61    5.2   159    10.4   964.2    0.00 
 145   12:30   1.06   65.1    59    6.9   150    13.3   964.2    0.00 
 145   12:40   0.84   65.4    59    4.4   137    11.2   964.2    0.00 
 145   12:50   0.42   64.5    60    4.8   128     9.3   964.2    0.00 
 145   13:00   0.37   64.2    61    4.8   140    13.4   964.3    0.00 
 145   13:10   0.30   63.2    64    5.2   129    13.5   964.3    0.00 
 145   13:20   0.30   63.1    65    3.5   123    11.0   964.5    0.00 
 145   13:30   0.32   62.9    66    5.1   137    10.7   964.6    0.00 
 145   13:40   0.08   61.4    68    2.0   122     7.5   964.9    0.00 
 145   13:50   0.06   60.8    72    3.1   118     5.8   964.8    0.00 
 145   14:00   0.05   60.3    72    2.6   129     7.7   965.0    0.00 
 145   14:10   0.05   59.8    72    3.5   145     6.6   965.2    0.00 
 145   14:20   0.04   59.3    73    2.8   145     6.1   965.4    0.00 
 145   14:30   0.03   58.6    74    3.4   133     6.6   965.5    0.00 
 145   14:40   0.03   58.0    76    4.0   138     6.9   965.5    0.00 
 145   14:50   0.03   57.5    78    3.8   137     6.5   965.5    0.00 
 145   15:00   0.03   56.9    79    4.5   143     8.2   965.5    0.00 
 145   15:10   0.03   56.3    81    5.1   139     9.3   965.5    0.00 
 145   15:20   0.04   55.5    85    2.3   116     4.5   965.5    0.00 
 145   15:30   0.05   55.0    91    1.5    73     2.9   965.5    0.01 
 145   15:40   0.05   54.5    93    1.6    81     2.4   965.7    0.01 
 145   15:50   0.07   54.2    94    1.1   112     2.3   965.6    0.01 
 145   16:00   0.07   54.1    95    0.7   140     1.7   965.5    0.02 
 145   16:10   0.09   54.3    96    1.6   149     3.0   965.4    0.00 
 145   16:20   0.10   54.8    96    1.8   156     4.9   965.5    0.00 
 145   16:30   0.06   54.8    93    2.5   116     5.6   965.6    0.00 
 145   16:40   0.07   54.7    95    0.8    60     2.2   965.8    0.00 
 145   16:50   0.10   54.8    96    1.1   180     2.9   965.9    0.00 
 145   17:00   0.23   55.2    95    2.1   206     3.6   965.9    0.00 
 145   17:10   0.24   55.5    94    1.7   206     3.2   965.9    0.00 
 145   17:20   0.13   55.3    94    0.4   204     2.2   965.8    0.00 
 145   17:30   0.08   54.9    95    1.5   236     1.9   965.8    0.00 
 145   17:40   0.05   54.8    96    0.6   202     1.4   965.7    0.00 
 145   17:50   0.04   54.9    96    0.2   195     1.4   965.7    0.00 
 145   18:00   0.04   54.6    97    0.4   195     1.0   965.6    0.00 
 145   18:10   0.04   54.5    97    1.1   195     1.8   965.6    0.00 
 145   18:20   0.04   54.5    98    1.6   188     2.6   965.6    0.00 
 145   18:30   0.03   54.5    98    0.9   191     2.6   965.5    0.00 
 145   18:40   0.03   54.5    98    0.6   194     2.2   965.5    0.00 
 145   18:50   0.02   54.4    98    0.3   215     1.0   965.5    0.00 
 145   19:00   0.01   54.3    98    0.0   222     0.4   965.5    0.00 
 145   19:10   0.01   54.2    98    0.1   220     0.8   965.6    0.00 
 145   19:20   0.01   53.9    98    1.2   187     1.8   965.6    0.00 
 145   19:30   0.00   53.5    98    0.2   187     1.2   965.7    0.00 
 145   19:40   0.00   53.0    98    0.7   183     1.7   965.7    0.00 
 145   19:50   0.00   52.6    98    0.5   190     1.5   965.7    0.00 
 145   20:00   0.00   52.2    99    0.3   195     0.9   965.8    0.00 
 145   20:10   0.00   51.9    99    0.1   195     0.7   965.9    0.00 
 145   20:20   0.00   51.6    99    0.0     0     0.0   966.1    0.00 
 145   20:30   0.00   51.8    99    0.0     0     0.0   966.2    0.00 
 145   20:40   0.00   52.0    99    0.0     0     0.0   966.3    0.00 
 145   20:50   0.00   52.1    99    0.0   195     0.4   966.4    0.01 
 145   21:00   0.00   52.2    99    0.2   153     1.4   966.6    0.00 
 145   21:10   0.00   52.2    99    1.0   172     2.0   966.7    0.00 
 145   21:20   0.00   52.0    99    2.1   175     3.3   966.7    0.00 
 145   21:30   0.00   51.9    99    1.5   164     2.3   966.8    0.00 
 145   21:40   0.00   51.8    99    1.7   148     3.4   966.9    0.00 
 145   21:50   0.00   51.6    99    1.4   178     2.6   966.9    0.00 
 145   22:00   0.00   51.5    99    1.0   178     1.7   966.8    0.00 
 145   22:10   0.00   51.5    99    1.6   172     3.3   966.8    0.00 
 145   22:20   0.00   51.3    98    1.7   167     3.4   966.9    0.00 
 145   22:30   0.00   51.3    98    1.2   177     2.5   966.9    0.00 
 145   22:40   0.00   51.2    98    1.8   162     2.9   967.0    0.00 
 145   22:50   0.00   51.0    98    1.3   179     2.2   967.0    0.00 
 145   23:00   0.00   51.0    98    1.0   182     1.8   967.0    0.00 
 145   23:10   0.00   51.1    98    0.9   190     1.8   967.1    0.00 
 145   23:20   0.00   51.0    98    1.3   199     2.5   967.0    0.00 
 145   23:30   0.00   51.0    98    0.7   185     1.9   967.0    0.00 
 145   23:40   0.00   50.9    98    0.9   188     1.7   967.0    0.00 
 145   23:50   0.00   50.7    98    1.4   177     2.0   967.0    0.00 
 146    0:00   0.00   50.6    98    1.6   180     2.0   967.0    0.00 
 146    0:10   0.00   50.5    98    1.7   173     2.4   967.1    0.00 
 146    0:20   0.00   50.3    98    2.4   167     3.4   967.1    0.00 
 146    0:30   0.00   50.4    98    1.7   175     3.1   967.1    0.00 
 146    0:40   0.00   50.5    98    1.1   166     2.2   967.0    0.00 
 146    0:50   0.00   50.5    98    0.8   178     1.8   967.0    0.00 
 146    1:00   0.00   50.5    98    1.9   177     2.5   967.0    0.00 
 146    1:10   0.00   50.3    98    1.7   168     2.8   967.1    0.00 
 146    1:20   0.00   50.3    98    0.8   168     1.7   967.0    0.00 
 146    1:30   0.00   50.5    98    0.0     0     0.0   967.1    0.00 
 146    1:40   0.00   50.6    98    0.1   206     0.9   967.1    0.00 
 146    1:50   0.00   50.5    98    0.9   183     2.4   967.1    0.00 
 146    2:00   0.00   50.3    98    0.5   196     1.5   967.1    0.00 
 146    2:10   0.00   50.2    98    0.6   176     1.7   967.1    0.00 
 146    2:20   0.00   50.1    98    1.3   182     2.8   967.1    0.00 
 146    2:30   0.00   49.9    98    1.3   185     2.8   967.1    0.00 
 146    2:40   0.00   50.0    98    0.6   177     1.4   967.1    0.00 
 146    2:50   0.00   49.8    98    1.2   177     1.8   967.1    0.00 
 146    3:00   0.00   49.6    98    1.5   182     2.6   967.1    0.00 
 146    3:10   0.00   49.2    98    2.4   182     2.9   967.0    0.00 
 146    3:20   0.00   49.2    98    0.7   177     1.5   967.0    0.00 
 146    3:30   0.00   49.5    98    0.2   171     1.2   967.0    0.00 
 146    3:40   0.00   49.5    98    0.9   173     2.0   967.0    0.00 
 146    3:50   0.00   49.5    98    0.8   183     2.0   967.2    0.00 
 146    4:00   0.00   49.5    98    1.6   170     2.8   967.3    0.00 
 146    4:10   0.00   49.2    98    1.7   168     2.9   967.4    0.00 
 146    4:20   0.00   49.2    98    0.6   194     1.8   967.4    0.00 
 146    4:30   0.00   49.2    98    1.5   178     2.5   967.4    0.00 
 146    4:40   0.00   49.2    98    1.7   169     3.4   967.4    0.00 
 146    4:50   0.00   49.1    97    2.1   168     3.1   967.4    0.00 
 146    5:00   0.00   49.2    97    0.9   167     1.8   967.5    0.00 
 146    5:10   0.00   49.4    97    0.7   185     2.3   967.5    0.00 
 146    5:20   0.01   49.4    97    0.6   190     2.2   967.6    0.00 
 146    5:30   0.01   49.5    97    1.1   171     1.8   967.7    0.00 
 146    5:40   0.02   49.6    97    1.6   172     2.5   967.7    0.00 
 146    5:50   0.03   49.7    97    1.1   166     2.3   967.8    0.00 
 146    6:00   0.03   49.9    96    1.3   168     1.9   967.8    0.00 
 146    6:10   0.07   50.1    96    2.4   169     3.7   967.9    0.00 
 146    6:20   0.07   50.2    95    2.0   171     2.8   967.9    0.00 
 146    6:30   0.07   50.5    94    1.6   158     2.6   968.0    0.00 
 146    6:40   0.08   50.8    95    2.1   174     3.0   968.2    0.00 
 146    6:50   0.11   51.2    94    2.7   175     3.9   968.2    0.00 
 146    7:00   0.13   51.7    94    1.8   183     3.7   968.3    0.00 
 146    7:10   0.14   53.0    92    0.9   184     2.7   968.6    0.00 
 146    7:20   0.17   53.9    89    0.3   176     2.0   968.7    0.00 
 146    7:30   0.18   54.3    86    1.3   161     2.9   968.8    0.00 
 146    7:40   0.21   54.5    86    1.3   154     2.8   968.8    0.00 
 146    7:50   0.23   55.8    84    0.7   152     2.5   968.9    0.00 
 146    8:00   0.29   56.4    82    0.9   102     3.0   969.0    0.00 
 146    8:10   0.35   57.5    80    1.1   289     2.8   969.0    0.00 
 146    8:20   0.24   57.1    79    1.4   315     2.9   969.2    0.00 
 146    8:30   0.20   57.0    80    0.7   337     2.6   969.3    0.00 
 146    8:40   0.28   57.3    79    0.6    66     2.9   969.4    0.00 
 146    8:50   0.49   58.2    77    1.7    11     3.6   969.4    0.00 
 146    9:00   0.67   60.2    74    1.5    43     3.4   969.4    0.00 
 146    9:10   0.71   60.2    74    2.3    15     5.0   969.4    0.00 
 146    9:20   0.71   60.6    73    1.1    24     3.1   969.4    0.00 
 146    9:30   0.77   60.7    73    1.7    81     3.3   969.4    0.00 
 146    9:40   0.81   62.0    69    1.3    91     3.3   969.5    0.00 
 146    9:50   0.82   63.0    68    2.1    25     6.5   969.5    0.00 
 146   10:00   0.93   63.8    66    2.1   159     5.5   969.4    0.00 
 146   10:10   0.61   64.0    67    2.3   152     7.2   969.4    0.00 
 146   10:20   0.70   63.6    69    1.0   189     3.9   969.4    0.00 
 146   10:30   0.90   64.5    66    2.7   150     5.5   969.4    0.00 

Return to Angelo Coast Range Reserve graphs page.


Western Regional Climate Center,wrcc@dri.edu